sensor_id;sensor_type;location;lat;lon;timestamp;pressure;altitude;pressure_sealevel;temperature;humidity
23176;BME280;19910;42.652;23.332;2023-03-14T00:00:39;94881.19;;;1.72;74.43
23176;BME280;19910;42.652;23.332;2023-03-14T00:03:06;94858.50;;;1.75;73.30
23176;BME280;19910;42.652;23.332;2023-03-14T00:05:33;94864.09;;;1.78;72.87
23176;BME280;19910;42.652;23.332;2023-03-14T00:08:00;94855.84;;;1.75;74.01
23176;BME280;19910;42.652;23.332;2023-03-14T00:10:27;94854.22;;;1.69;74.35
23176;BME280;19910;42.652;23.332;2023-03-14T00:12:55;94852.09;;;1.71;75.09
23176;BME280;19910;42.652;23.332;2023-03-14T00:15:22;94853.69;;;1.62;74.94
23176;BME280;19910;42.652;23.332;2023-03-14T00:17:49;94851.56;;;1.69;74.46
23176;BME280;19910;42.652;23.332;2023-03-14T00:20:16;94840.34;;;1.67;75.10
23176;BME280;19910;42.652;23.332;2023-03-14T00:22:42;94832.88;;;1.69;75.52
23176;BME280;19910;42.652;23.332;2023-03-14T00:25:10;94836.06;;;1.66;75.19
23176;BME280;19910;42.652;23.332;2023-03-14T00:27:37;94827.50;;;1.79;73.20
23176;BME280;19910;42.652;23.332;2023-03-14T00:30:07;94817.41;;;1.76;75.44
23176;BME280;19910;42.652;23.332;2023-03-14T00:32:34;94815.25;;;1.88;74.36
23176;BME280;19910;42.652;23.332;2023-03-14T00:35:01;94817.66;;;1.90;74.53
23176;BME280;19910;42.652;23.332;2023-03-14T00:37:28;94814.72;;;1.61;75.24
23176;BME280;19910;42.652;23.332;2023-03-14T00:39:55;94817.94;;;1.63;75.17
23176;BME280;19910;42.652;23.332;2023-03-14T00:42:26;94809.34;;;1.51;75.17
23176;BME280;19910;42.652;23.332;2023-03-14T00:44:53;94804.03;;;1.61;75.51
23176;BME280;19910;42.652;23.332;2023-03-14T00:47:21;94807.22;;;1.68;76.93
23176;BME280;19910;42.652;23.332;2023-03-14T00:49:48;94805.63;;;1.72;77.16
23176;BME280;19910;42.652;23.332;2023-03-14T00:52:15;94806.97;;;1.74;76.00
23176;BME280;19910;42.652;23.332;2023-03-14T00:54:42;94805.63;;;1.72;75.85
23176;BME280;19910;42.652;23.332;2023-03-14T00:57:08;94806.16;;;1.69;74.84
23176;BME280;19910;42.652;23.332;2023-03-14T00:59:35;94803.50;;;1.49;75.50
23176;BME280;19910;42.652;23.332;2023-03-14T01:02:02;94802.69;;;1.53;74.58
23176;BME280;19910;42.652;23.332;2023-03-14T01:04:30;94794.44;;;1.45;74.36
23176;BME280;19910;42.652;23.332;2023-03-14T01:06:57;94792.56;;;1.50;75.53
23176;BME280;19910;42.652;23.332;2023-03-14T01:09:23;94789.63;;;1.57;75.47
23176;BME280;19910;42.652;23.332;2023-03-14T01:11:50;94789.63;;;1.57;76.75
23176;BME280;19910;42.652;23.332;2023-03-14T01:14:17;94794.97;;;1.57;76.53
23176;BME280;19910;42.652;23.332;2023-03-14T01:16:44;94791.47;;;1.56;76.75
23176;BME280;19910;42.652;23.332;2023-03-14T01:19:11;94784.81;;;1.64;77.73
23176;BME280;19910;42.652;23.332;2023-03-14T01:21:39;94785.09;;;1.57;77.22
23176;BME280;19910;42.652;23.332;2023-03-14T01:24:06;94780.56;;;1.63;75.34
23176;BME280;19910;42.652;23.332;2023-03-14T01:26:34;94769.34;;;1.35;76.95
23176;BME280;19910;42.652;23.332;2023-03-14T01:29:02;94774.41;;;1.42;75.87
23176;BME280;19910;42.652;23.332;2023-03-14T01:31:29;94770.38;;;1.39;76.25
23176;BME280;19910;42.652;23.332;2023-03-14T01:33:56;94772.53;;;1.42;77.14
23176;BME280;19910;42.652;23.332;2023-03-14T01:36:23;94768.81;;;1.43;77.31
23176;BME280;19910;42.652;23.332;2023-03-14T01:38:51;94766.66;;;1.46;77.22
23176;BME280;19910;42.652;23.332;2023-03-14T01:41:19;94764.78;;;1.56;77.00
23176;BME280;19910;42.652;23.332;2023-03-14T01:43:47;94761.31;;;1.51;77.56
23176;BME280;19910;42.652;23.332;2023-03-14T01:46:23;94765.59;;;1.52;76.47
23176;BME280;19910;42.652;23.332;2023-03-14T01:48:55;94764.28;;;1.49;76.54
23176;BME280;19910;42.652;23.332;2023-03-14T01:51:28;94759.72;;;1.39;76.84
23176;BME280;19910;42.652;23.332;2023-03-14T01:54:02;94751.72;;;1.34;77.74
23176;BME280;19910;42.652;23.332;2023-03-14T01:56:31;94757.59;;;1.31;77.09
23176;BME280;19910;42.652;23.332;2023-03-14T01:58:59;94749.31;;;1.18;77.87
23176;BME280;19910;42.652;23.332;2023-03-14T02:01:28;94755.44;;;1.18;77.24
23176;BME280;19910;42.652;23.332;2023-03-14T02:03:57;94751.97;;;1.13;77.85
23176;BME280;19910;42.652;23.332;2023-03-14T02:06:29;94756.53;;;1.22;76.92
23176;BME280;19910;42.652;23.332;2023-03-14T02:09:00;94749.06;;;1.19;77.73
23176;BME280;19910;42.652;23.332;2023-03-14T02:11:28;94757.34;;;1.23;76.37
23176;BME280;19910;42.652;23.332;2023-03-14T02:13:56;94750.66;;;1.20;76.84
23176;BME280;19910;42.652;23.332;2023-03-14T02:16:24;94740.53;;;1.22;76.23
23176;BME280;19910;42.652;23.332;2023-03-14T02:18:52;94741.84;;;1.25;77.78
23176;BME280;19910;42.652;23.332;2023-03-14T02:21:22;94741.06;;;1.34;77.72
23176;BME280;19910;42.652;23.332;2023-03-14T02:23:55;94742.09;;;1.23;76.99
23176;BME280;19910;42.652;23.332;2023-03-14T02:26:29;94738.91;;;1.16;77.97
23176;BME280;19910;42.652;23.332;2023-03-14T02:28:59;94738.63;;;1.13;78.27
23176;BME280;19910;42.652;23.332;2023-03-14T02:31:26;94741.56;;;1.11;78.71
23176;BME280;19910;42.652;23.332;2023-03-14T02:33:53;94728.22;;;1.11;77.47
23176;BME280;19910;42.652;23.332;2023-03-14T02:36:22;94741.03;;;1.14;77.25
23176;BME280;19910;42.652;23.332;2023-03-14T02:38:52;94737.84;;;1.07;77.85
23176;BME280;19910;42.652;23.332;2023-03-14T02:41:21;94746.88;;;1.01;78.20
23176;BME280;19910;42.652;23.332;2023-03-14T02:43:48;94755.16;;;1.10;78.09
23176;BME280;19910;42.652;23.332;2023-03-14T02:46:20;94757.56;;;1.06;77.80
23176;BME280;19910;42.652;23.332;2023-03-14T02:48:49;94752.78;;;1.08;77.92
23176;BME280;19910;42.652;23.332;2023-03-14T02:51:17;94753.59;;;1.09;77.60
23176;BME280;19910;42.652;23.332;2023-03-14T02:53:44;94752.22;;;1.11;77.11
23176;BME280;19910;42.652;23.332;2023-03-14T02:56:11;94751.69;;;0.99;77.17
23176;BME280;19910;42.652;23.332;2023-03-14T02:58:38;94754.88;;;0.81;77.66
23176;BME280;19910;42.652;23.332;2023-03-14T03:01:05;94756.44;;;0.77;77.61
23176;BME280;19910;42.652;23.332;2023-03-14T03:03:34;94750.59;;;0.80;76.88
23176;BME280;19910;42.652;23.332;2023-03-14T03:06:01;94745.50;;;0.83;77.07
23176;BME280;19910;42.652;23.332;2023-03-14T03:08:28;94752.72;;;0.83;78.32
23176;BME280;19910;42.652;23.332;2023-03-14T03:10:56;94754.34;;;0.89;78.42
23176;BME280;19910;42.652;23.332;2023-03-14T03:13:23;94750.59;;;0.90;77.84
23176;BME280;19910;42.652;23.332;2023-03-14T03:15:50;94751.97;;;1.02;77.79
23176;BME280;19910;42.652;23.332;2023-03-14T03:18:17;94749.00;;;0.99;77.21
23176;BME280;19910;42.652;23.332;2023-03-14T03:20:45;94747.13;;;0.89;78.84
23176;BME280;19910;42.652;23.332;2023-03-14T03:23:12;94747.13;;;0.84;78.25
23176;BME280;19910;42.652;23.332;2023-03-14T03:25:39;94744.75;;;0.93;78.22
23176;BME280;19910;42.652;23.332;2023-03-14T03:28:06;94739.94;;;0.90;77.79
23176;BME280;19910;42.652;23.332;2023-03-14T03:30:36;94758.31;;;0.86;77.91
23176;BME280;19910;42.652;23.332;2023-03-14T03:33:03;94749.53;;;0.86;79.20
23176;BME280;19910;42.652;23.332;2023-03-14T03:35:30;94754.88;;;0.96;80.25
23176;BME280;19910;42.652;23.332;2023-03-14T03:37:58;94741.03;;;0.94;79.33
23176;BME280;19910;42.652;23.332;2023-03-14T03:40:25;94746.06;;;0.90;78.80
23176;BME280;19910;42.652;23.332;2023-03-14T03:42:52;94747.41;;;0.88;79.03
23176;BME280;19910;42.652;23.332;2023-03-14T03:45:19;94746.88;;;0.91;79.06
23176;BME280;19910;42.652;23.332;2023-03-14T03:47:45;94749.03;;;0.94;78.62
23176;BME280;19910;42.652;23.332;2023-03-14T03:50:12;94746.06;;;0.90;78.03
23176;BME280;19910;42.652;23.332;2023-03-14T03:52:39;94757.03;;;0.94;77.94
23176;BME280;19910;42.652;23.332;2023-03-14T03:55:08;94759.66;;;0.89;78.02
23176;BME280;19910;42.652;23.332;2023-03-14T03:57:35;94761.78;;;0.77;77.79
23176;BME280;19910;42.652;23.332;2023-03-14T04:00:02;94762.88;;;0.81;78.63
23176;BME280;19910;42.652;23.332;2023-03-14T04:02:30;94765.53;;;0.86;78.95
23176;BME280;19910;42.652;23.332;2023-03-14T04:04:56;94765.78;;;0.84;79.72
23176;BME280;19910;42.652;23.332;2023-03-14T04:07:23;94753.25;;;0.85;79.00
23176;BME280;19910;42.652;23.332;2023-03-14T04:09:50;94758.06;;;0.88;77.58
23176;BME280;19910;42.652;23.332;2023-03-14T04:12:18;94756.97;;;0.74;77.80
23176;BME280;19910;42.652;23.332;2023-03-14T04:14:45;94752.69;;;0.67;78.32
23176;BME280;19910;42.652;23.332;2023-03-14T04:17:12;94751.59;;;0.68;78.91
23176;BME280;19910;42.652;23.332;2023-03-14T04:19:39;94745.19;;;0.54;79.47
23176;BME280;19910;42.652;23.332;2023-03-14T04:22:06;94742.03;;;0.67;79.48
23176;BME280;19910;42.652;23.332;2023-03-14T04:24:32;94742.28;;;0.71;78.64
23176;BME280;19910;42.652;23.332;2023-03-14T04:26:59;94738.31;;;0.74;79.65
23176;BME280;19910;42.652;23.332;2023-03-14T04:29:27;94728.44;;;0.64;79.48
23176;BME280;19910;42.652;23.332;2023-03-14T04:31:54;94727.16;;;0.82;78.82
23176;BME280;19910;42.652;23.332;2023-03-14T04:34:21;94735.41;;;0.90;77.54
23176;BME280;19910;42.652;23.332;2023-03-14T04:36:47;94727.41;;;0.80;78.33
23176;BME280;19910;42.652;23.332;2023-03-14T04:39:14;94723.38;;;0.67;78.72
23176;BME280;19910;42.652;23.332;2023-03-14T04:41:41;94723.88;;;0.69;79.24
23176;BME280;19910;42.652;23.332;2023-03-14T04:44:08;94719.63;;;0.68;79.63
23176;BME280;19910;42.652;23.332;2023-03-14T04:46:36;94715.13;;;0.84;79.62
23176;BME280;19910;42.652;23.332;2023-03-14T04:49:02;94707.91;;;0.69;79.55
23176;BME280;19910;42.652;23.332;2023-03-14T04:51:29;94720.97;;;0.71;79.57
23176;BME280;19910;42.652;23.332;2023-03-14T04:53:56;94704.44;;;0.74;79.13
23176;BME280;19910;42.652;23.332;2023-03-14T04:56:23;94706.56;;;0.72;79.42
23176;BME280;19910;42.652;23.332;2023-03-14T04:58:49;94702.59;;;0.80;79.52
23176;BME280;19910;42.652;23.332;2023-03-14T05:01:16;94702.34;;;1.01;79.54
23176;BME280;19910;42.652;23.332;2023-03-14T05:03:44;94695.38;;;1.66;77.17
23176;BME280;19910;42.652;23.332;2023-03-14T05:06:11;94698.69;;;2.23;74.77
23176;BME280;19910;42.652;23.332;2023-03-14T05:08:38;94689.78;;;2.37;74.66
23176;BME280;19910;42.652;23.332;2023-03-14T05:11:05;94695.75;;;2.73;74.20
23176;BME280;19910;42.652;23.332;2023-03-14T05:13:32;94698.75;;;3.06;72.50
23176;BME280;19910;42.652;23.332;2023-03-14T05:16:06;94686.31;;;4.31;69.88
23176;BME280;19910;42.652;23.332;2023-03-14T05:18:33;94678.53;;;5.74;63.76
23176;BME280;19910;42.652;23.332;2023-03-14T05:21:02;94666.97;;;7.10;60.23
23176;BME280;19910;42.652;23.332;2023-03-14T05:23:29;94666.13;;;8.08;58.15
23176;BME280;19910;42.652;23.332;2023-03-14T05:25:57;94655.66;;;8.37;56.20
23176;BME280;19910;42.652;23.332;2023-03-14T05:28:23;94663.38;;;8.30;55.94
23176;BME280;19910;42.652;23.332;2023-03-14T05:30:50;94659.47;;;9.36;52.05
23176;BME280;19910;42.652;23.332;2023-03-14T05:33:17;94663.97;;;10.05;50.59
23176;BME280;19910;42.652;23.332;2023-03-14T05:35:44;94650.63;;;10.76;48.83
23176;BME280;19910;42.652;23.332;2023-03-14T05:38:12;94648.44;;;11.19;46.53
23176;BME280;19910;42.652;23.332;2023-03-14T05:40:39;94647.38;;;11.86;44.59
23176;BME280;19910;42.652;23.332;2023-03-14T05:43:05;94647.34;;;12.19;43.03
23176;BME280;19910;42.652;23.332;2023-03-14T05:45:34;94644.56;;;12.52;41.81
23176;BME280;19910;42.652;23.332;2023-03-14T05:48:01;94637.97;;;12.90;40.71
23176;BME280;19910;42.652;23.332;2023-03-14T05:50:28;94647.13;;;12.85;39.64
23176;BME280;19910;42.652;23.332;2023-03-14T05:52:58;94648.28;;;12.72;38.51
23176;BME280;19910;42.652;23.332;2023-03-14T05:55:29;94646.81;;;11.60;41.05
23176;BME280;19910;42.652;23.332;2023-03-14T05:57:58;94652.25;;;11.18;42.17
23176;BME280;19910;42.652;23.332;2023-03-14T06:00:24;94650.44;;;11.85;41.09
23176;BME280;19910;42.652;23.332;2023-03-14T06:02:51;94648.28;;;12.72;40.10
23176;BME280;19910;42.652;23.332;2023-03-14T06:05:18;94643.72;;;13.25;38.66
23176;BME280;19910;42.652;23.332;2023-03-14T06:07:45;94641.13;;;13.04;39.23
23176;BME280;19910;42.652;23.332;2023-03-14T06:10:12;94640.41;;;13.31;37.37
23176;BME280;19910;42.652;23.332;2023-03-14T06:12:40;94641.13;;;13.84;37.35
23176;BME280;19910;42.652;23.332;2023-03-14T06:15:08;94629.34;;;13.24;37.29
23176;BME280;19910;42.652;23.332;2023-03-14T06:17:34;94643.53;;;11.33;39.96
23176;BME280;19910;42.652;23.332;2023-03-14T06:20:01;94645.09;;;11.34;40.19
23176;BME280;19910;42.652;23.332;2023-03-14T06:22:28;94641.00;;;11.28;40.50
23176;BME280;19910;42.652;23.332;2023-03-14T06:24:55;94639.66;;;12.33;39.06
23176;BME280;19910;42.652;23.332;2023-03-14T06:27:22;94646.66;;;11.77;39.55
23176;BME280;19910;42.652;23.332;2023-03-14T06:29:50;94648.59;;;12.22;39.48
23176;BME280;19910;42.652;23.332;2023-03-14T06:32:16;94649.81;;;12.12;40.01
23176;BME280;19910;42.652;23.332;2023-03-14T06:34:43;94656.66;;;11.85;39.34
23176;BME280;19910;42.652;23.332;2023-03-14T06:37:10;94658.56;;;11.64;40.35
23176;BME280;19910;42.652;23.332;2023-03-14T06:39:37;94647.59;;;12.63;38.91
23176;BME280;19910;42.652;23.332;2023-03-14T06:42:04;94639.53;;;13.15;38.11
23176;BME280;19910;42.652;23.332;2023-03-14T06:44:31;94630.06;;;14.20;36.25
23176;BME280;19910;42.652;23.332;2023-03-14T06:46:59;94624.28;;;14.53;35.51
23176;BME280;19910;42.652;23.332;2023-03-14T06:49:26;94629.72;;;14.69;34.65
23176;BME280;19910;42.652;23.332;2023-03-14T06:51:53;94615.28;;;14.84;34.90
23176;BME280;19910;42.652;23.332;2023-03-14T06:54:20;94614.59;;;14.56;35.44
23176;BME280;19910;42.652;23.332;2023-03-14T06:56:47;94606.88;;;13.55;35.68
23176;BME280;19910;42.652;23.332;2023-03-14T06:59:16;94605.34;;;12.90;37.31
23176;BME280;19910;42.652;23.332;2023-03-14T07:01:46;94610.03;;;13.29;37.16
23176;BME280;19910;42.652;23.332;2023-03-14T07:04:14;94599.75;;;13.10;37.02
23176;BME280;19910;42.652;23.332;2023-03-14T07:06:41;94608.75;;;12.01;38.59
23176;BME280;19910;42.652;23.332;2023-03-14T07:09:09;94613.03;;;10.74;40.81
23176;BME280;19910;42.652;23.332;2023-03-14T07:11:37;94621.41;;;9.67;43.04
23176;BME280;19910;42.652;23.332;2023-03-14T07:14:04;94619.84;;;8.80;45.07
23176;BME280;19910;42.652;23.332;2023-03-14T07:16:30;94616.72;;;9.85;44.49
23176;BME280;19910;42.652;23.332;2023-03-14T07:18:58;94612.06;;;10.11;43.75
23176;BME280;19910;42.652;23.332;2023-03-14T07:21:26;94616.66;;;10.11;43.33
23176;BME280;19910;42.652;23.332;2023-03-14T07:23:53;94618.94;;;9.27;44.77
23176;BME280;19910;42.652;23.332;2023-03-14T07:26:20;94624.00;;;9.20;45.14
23176;BME280;19910;42.652;23.332;2023-03-14T07:28:47;94623.38;;;9.23;45.49
23176;BME280;19910;42.652;23.332;2023-03-14T07:31:14;94610.00;;;9.18;45.09
23176;BME280;19910;42.652;23.332;2023-03-14T07:33:40;94619.41;;;8.86;45.26
23176;BME280;19910;42.652;23.332;2023-03-14T07:36:08;94614.91;;;7.46;47.86
23176;BME280;19910;42.652;23.332;2023-03-14T07:38:36;94613.53;;;7.57;48.03
23176;BME280;19910;42.652;23.332;2023-03-14T07:41:05;94606.59;;;7.96;47.03
23176;BME280;19910;42.652;23.332;2023-03-14T07:43:32;94598.00;;;7.94;48.12
23176;BME280;19910;42.652;23.332;2023-03-14T07:45:59;94603.19;;;8.21;46.13
23176;BME280;19910;42.652;23.332;2023-03-14T07:48:26;94605.94;;;7.59;47.92
23176;BME280;19910;42.652;23.332;2023-03-14T07:50:54;94596.97;;;8.12;47.19
23176;BME280;19910;42.652;23.332;2023-03-14T07:53:21;94595.19;;;7.99;46.95
23176;BME280;19910;42.652;23.332;2023-03-14T07:55:53;94591.50;;;7.55;48.14
23176;BME280;19910;42.652;23.332;2023-03-14T07:58:23;94595.31;;;7.94;47.82
23176;BME280;19910;42.652;23.332;2023-03-14T08:00:51;94595.28;;;7.85;48.40
23176;BME280;19910;42.652;23.332;2023-03-14T08:03:18;94590.78;;;7.72;47.63
23176;BME280;19910;42.652;23.332;2023-03-14T08:05:47;94593.19;;;7.73;47.76
23176;BME280;19910;42.652;23.332;2023-03-14T08:08:14;94585.84;;;8.44;47.34
23176;BME280;19910;42.652;23.332;2023-03-14T08:10:41;94587.25;;;8.33;46.61
23176;BME280;19910;42.652;23.332;2023-03-14T08:13:10;94589.00;;;8.46;46.86
23176;BME280;19910;42.652;23.332;2023-03-14T08:15:37;94594.09;;;8.57;46.21
23176;BME280;19910;42.652;23.332;2023-03-14T08:18:04;94586.94;;;8.52;45.66
23176;BME280;19910;42.652;23.332;2023-03-14T08:20:31;94595.41;;;8.85;44.89
23176;BME280;19910;42.652;23.332;2023-03-14T08:22:58;94587.78;;;8.87;45.24
23176;BME280;19910;42.652;23.332;2023-03-14T08:25:26;94589.81;;;9.16;43.69
23176;BME280;19910;42.652;23.332;2023-03-14T08:27:53;94580.97;;;9.79;43.15
23176;BME280;19910;42.652;23.332;2023-03-14T08:30:22;94577.34;;;9.58;42.72
23176;BME280;19910;42.652;23.332;2023-03-14T08:32:49;94576.22;;;9.59;43.06
23176;BME280;19910;42.652;23.332;2023-03-14T08:35:16;94570.91;;;9.24;43.66
23176;BME280;19910;42.652;23.332;2023-03-14T08:37:43;94564.41;;;9.72;43.33
23176;BME280;19910;42.652;23.332;2023-03-14T08:40:10;94566.59;;;9.41;43.37
23176;BME280;19910;42.652;23.332;2023-03-14T08:42:38;94567.06;;;9.43;44.15
23176;BME280;19910;42.652;23.332;2023-03-14T08:45:06;94562.66;;;9.12;44.69
23176;BME280;19910;42.652;23.332;2023-03-14T08:47:35;94560.72;;;9.39;44.95
23176;BME280;19910;42.652;23.332;2023-03-14T08:50:02;94553.75;;;9.76;45.29
23176;BME280;19910;42.652;23.332;2023-03-14T08:52:29;94553.00;;;9.58;42.79
23176;BME280;19910;42.652;23.332;2023-03-14T08:54:56;94538.53;;;9.62;41.89
23176;BME280;19910;42.652;23.332;2023-03-14T08:57:23;94534.00;;;10.22;41.53
23176;BME280;19910;42.652;23.332;2023-03-14T08:59:53;94526.66;;;10.52;41.25
23176;BME280;19910;42.652;23.332;2023-03-14T09:02:19;94524.72;;;10.52;40.48
23176;BME280;19910;42.652;23.332;2023-03-14T09:04:47;94519.19;;;10.49;40.70
23176;BME280;19910;42.652;23.332;2023-03-14T09:07:16;94515.13;;;11.17;41.83
23176;BME280;19910;42.652;23.332;2023-03-14T09:09:43;94502.44;;;11.66;38.51
23176;BME280;19910;42.652;23.332;2023-03-14T09:12:10;94509.69;;;11.17;40.14
23176;BME280;19910;42.652;23.332;2023-03-14T09:14:36;94498.84;;;11.17;40.51
23176;BME280;19910;42.652;23.332;2023-03-14T09:17:03;94485.06;;;11.22;40.20
23176;BME280;19910;42.652;23.332;2023-03-14T09:19:30;94486.72;;;11.02;40.79
23176;BME280;19910;42.652;23.332;2023-03-14T09:21:59;94484.16;;;9.93;40.91
23176;BME280;19910;42.652;23.332;2023-03-14T09:24:25;94479.47;;;10.53;40.65
23176;BME280;19910;42.652;23.332;2023-03-14T09:26:52;94482.25;;;10.65;39.99
23176;BME280;19910;42.652;23.332;2023-03-14T09:29:19;94471.16;;;10.37;40.30
23176;BME280;19910;42.652;23.332;2023-03-14T09:31:45;94470.88;;;10.30;40.58
23176;BME280;19910;42.652;23.332;2023-03-14T09:34:12;94459.00;;;10.43;39.85
23176;BME280;19910;42.652;23.332;2023-03-14T09:36:39;94467.31;;;10.59;41.18
23176;BME280;19910;42.652;23.332;2023-03-14T09:39:07;94458.88;;;10.93;40.61
23176;BME280;19910;42.652;23.332;2023-03-14T09:41:36;94449.34;;;10.54;39.71
23176;BME280;19910;42.652;23.332;2023-03-14T09:44:06;94445.84;;;10.75;39.76
23176;BME280;19910;42.652;23.332;2023-03-14T09:46:36;94437.63;;;11.16;38.88
23176;BME280;19910;42.652;23.332;2023-03-14T09:49:10;94432.25;;;10.95;38.62
23176;BME280;19910;42.652;23.332;2023-03-14T09:51:39;94441.72;;;10.89;39.00
23176;BME280;19910;42.652;23.332;2023-03-14T09:54:18;94425.44;;;10.77;39.52
23176;BME280;19910;42.652;23.332;2023-03-14T09:56:50;94422.69;;;11.10;39.78
23176;BME280;19910;42.652;23.332;2023-03-14T09:59:18;94416.41;;;11.55;38.67
23176;BME280;19910;42.652;23.332;2023-03-14T10:01:45;94410.31;;;11.46;38.56
23176;BME280;19910;42.652;23.332;2023-03-14T10:04:15;94406.72;;;11.78;38.04
23176;BME280;19910;42.652;23.332;2023-03-14T10:06:41;94395.50;;;11.67;38.05
23176;BME280;19910;42.652;23.332;2023-03-14T10:09:15;94399.38;;;12.31;37.34
23176;BME280;19910;42.652;23.332;2023-03-14T10:11:43;94402.31;;;11.73;37.50
23176;BME280;19910;42.652;23.332;2023-03-14T10:14:11;94397.22;;;11.84;38.46
23176;BME280;19910;42.652;23.332;2023-03-14T10:16:43;94389.66;;;12.42;37.25
23176;BME280;19910;42.652;23.332;2023-03-14T10:19:12;94391.13;;;12.67;37.99
23176;BME280;19910;42.652;23.332;2023-03-14T10:21:40;94357.47;;;13.31;37.24
23176;BME280;19910;42.652;23.332;2023-03-14T10:24:20;94363.66;;;12.57;37.21
23176;BME280;19910;42.652;23.332;2023-03-14T10:26:48;94358.00;;;12.22;38.67
23176;BME280;19910;42.652;23.332;2023-03-14T10:29:16;94349.13;;;12.37;38.16
23176;BME280;19910;42.652;23.332;2023-03-14T10:31:49;94341.44;;;12.67;38.01
23176;BME280;19910;42.652;23.332;2023-03-14T10:34:21;94340.81;;;12.73;37.75
23176;BME280;19910;42.652;23.332;2023-03-14T10:36:53;94325.94;;;12.99;37.68
23176;BME280;19910;42.652;23.332;2023-03-14T10:39:36;94328.88;;;12.62;37.70
23176;BME280;19910;42.652;23.332;2023-03-14T10:42:12;94311.91;;;12.81;38.06
23176;BME280;19910;42.652;23.332;2023-03-14T10:44:41;94302.78;;;13.05;38.12
23176;BME280;19910;42.652;23.332;2023-03-14T10:47:16;94304.22;;;13.14;38.05
23176;BME280;19910;42.652;23.332;2023-03-14T10:49:44;94292.53;;;13.30;38.01
23176;BME280;19910;42.652;23.332;2023-03-14T10:52:19;94292.88;;;12.97;38.29
23176;BME280;19910;42.652;23.332;2023-03-14T10:54:54;94284.81;;;12.69;39.01
23176;BME280;19910;42.652;23.332;2023-03-14T10:57:21;94273.84;;;13.28;38.89
23176;BME280;19910;42.652;23.332;2023-03-14T10:59:48;94268.31;;;13.40;38.67
23176;BME280;19910;42.652;23.332;2023-03-14T11:02:33;94257.53;;;13.28;38.99
23176;BME280;19910;42.652;23.332;2023-03-14T11:05:11;94261.94;;;13.17;39.30
23176;BME280;19910;42.652;23.332;2023-03-14T11:07:41;94254.38;;;12.95;39.80
23176;BME280;19910;42.652;23.332;2023-03-14T11:10:18;94257.44;;;12.62;40.35
23176;BME280;19910;42.652;23.332;2023-03-14T11:15:34;94241.50;;;13.23;39.24
23176;BME280;19910;42.652;23.332;2023-03-14T11:18:26;94234.13;;;13.24;39.23
23176;BME280;19910;42.652;23.332;2023-03-14T11:20:59;94218.66;;;13.28;39.13
23176;BME280;19910;42.652;23.332;2023-03-14T11:23:35;94208.56;;;13.28;38.86
23176;BME280;19910;42.652;23.332;2023-03-14T11:26:15;94193.44;;;13.46;38.28
23176;BME280;19910;42.652;23.332;2023-03-14T11:28:48;94190.50;;;14.13;38.01
23176;BME280;19910;42.652;23.332;2023-03-14T11:31:20;94179.13;;;14.07;37.18
23176;BME280;19910;42.652;23.332;2023-03-14T11:33:54;94180.69;;;13.89;37.53
23176;BME280;19910;42.652;23.332;2023-03-14T11:36:27;94170.25;;;13.91;37.59
23176;BME280;19910;42.652;23.332;2023-03-14T11:38:58;94167.03;;;14.28;36.92
23176;BME280;19910;42.652;23.332;2023-03-14T11:41:30;94164.16;;;14.40;37.22
23176;BME280;19910;42.652;23.332;2023-03-14T11:44:02;94152.16;;;14.67;37.11
23176;BME280;19910;42.652;23.332;2023-03-14T11:46:34;94153.09;;;14.75;36.22
23176;BME280;19910;42.652;23.332;2023-03-14T11:49:06;94138.72;;;14.55;36.40
23176;BME280;19910;42.652;23.332;2023-03-14T11:51:39;94150.81;;;14.80;36.37
23176;BME280;19910;42.652;23.332;2023-03-14T11:54:14;94140.47;;;14.67;36.36
23176;BME280;19910;42.652;23.332;2023-03-14T11:56:48;94138.25;;;14.99;36.17
23176;BME280;19910;42.652;23.332;2023-03-14T11:59:23;94132.25;;;15.42;34.63
23176;BME280;19910;42.652;23.332;2023-03-14T12:01:54;94122.50;;;15.71;34.40
23176;BME280;19910;42.652;23.332;2023-03-14T12:04:35;94117.94;;;15.82;34.41
23176;BME280;19910;42.652;23.332;2023-03-14T12:07:11;94108.81;;;16.05;34.09
23176;BME280;19910;42.652;23.332;2023-03-14T12:09:39;94094.19;;;16.27;34.04
23176;BME280;19910;42.652;23.332;2023-03-14T12:12:12;94087.81;;;16.12;33.90
23176;BME280;19910;42.652;23.332;2023-03-14T12:14:46;94087.88;;;16.19;33.72
23176;BME280;19910;42.652;23.332;2023-03-14T12:17:20;94084.28;;;16.56;33.03
23176;BME280;19910;42.652;23.332;2023-03-14T12:19:47;94080.53;;;16.71;32.31
23176;BME280;19910;42.652;23.332;2023-03-14T12:22:26;94066.75;;;16.16;33.46
23176;BME280;19910;42.652;23.332;2023-03-14T12:24:59;94072.13;;;15.39;34.23
23176;BME280;19910;42.652;23.332;2023-03-14T12:30:33;94059.44;;;16.27;35.47
23176;BME280;19910;42.652;23.332;2023-03-14T12:33:30;94060.31;;;15.94;33.11
23176;BME280;19910;42.652;23.332;2023-03-14T12:36:20;94059.16;;;15.99;33.40
23176;BME280;19910;42.652;23.332;2023-03-14T12:39:19;94045.97;;;16.49;33.10
23176;BME280;19910;42.652;23.332;2023-03-14T12:41:51;94035.72;;;16.90;32.81
23176;BME280;19910;42.652;23.332;2023-03-14T12:44:41;94040.03;;;16.43;32.72
23176;BME280;19910;42.652;23.332;2023-03-14T12:50:18;94039.91;;;15.18;33.96
23176;BME280;19910;42.652;23.332;2023-03-14T12:52:56;94031.50;;;15.30;34.13
23176;BME280;19910;42.652;23.332;2023-03-14T12:55:32;94019.66;;;15.52;33.45
23176;BME280;19910;42.652;23.332;2023-03-14T12:58:05;94020.91;;;15.58;33.36
23176;BME280;19910;42.652;23.332;2023-03-14T13:00:37;94003.53;;;16.18;33.15
23176;BME280;19910;42.652;23.332;2023-03-14T13:03:17;93997.53;;;16.49;32.61
23176;BME280;19910;42.652;23.332;2023-03-14T13:06:00;94003.81;;;16.57;32.06
23176;BME280;19910;42.652;23.332;2023-03-14T13:08:34;93995.53;;;15.95;32.61
23176;BME280;19910;42.652;23.332;2023-03-14T13:11:02;93988.38;;;15.80;32.67
23176;BME280;19910;42.652;23.332;2023-03-14T13:13:34;93996.31;;;15.55;32.67